Time;durP1;ratioP1;P1;durP2;ratioP2;P2;SDS_P1;SDS_P2;PMS_P1;PMS_P2;Temp;Humidity;BMP_temperature;BMP_pressure;BME280_temperature;BME280_humidity;BME280_pressure;Samples;Min_cycle;Max_cycle;Signal;HPM_P1;HPM_P2
2022/01/10 00:00:24;;;;;;;;;82.00;61.25;;;;;2.72;88.95;100793.41;4979776;28;45319;-68
2022/01/10 00:02:53;;;;;;;;;80.25;61.25;;;;;2.83;90.05;100827.31;4978409;28;45280;-68
2022/01/10 00:05:18;;;;;;;;;79.00;60.33;;;;;2.78;89.47;100814.28;4979879;28;45317;-68
2022/01/10 00:07:44;;;;;;;;;78.67;59.00;;;;;2.83;89.67;100835.13;4979524;28;45509;-68
2022/01/10 00:10:10;;;;;;;;;77.67;60.00;;;;;2.79;88.59;100836.84;4979378;28;45443;-68
2022/01/10 00:12:36;;;;;;;;;77.33;61.33;;;;;2.81;90.48;100846.38;4979601;28;45268;-68
2022/01/10 00:15:02;;;;;;;;;78.00;60.00;;;;;2.72;90.71;100827.22;4979765;28;45241;-68
2022/01/10 00:17:27;;;;;;;;;70.00;56.33;;;;;2.88;88.25;100854.25;4979276;28;45396;-68
2022/01/10 00:19:53;;;;;;;;;78.00;54.33;;;;;2.68;87.57;100833.22;4979537;28;45439;-68
2022/01/10 00:22:19;;;;;;;;;78.00;56.33;;;;;2.58;88.88;100829.66;4979577;28;45797;-68
2022/01/10 00:24:45;;;;;;;;;70.33;56.00;;;;;2.65;88.55;100837.53;4979618;28;45442;-68
2022/01/10 00:27:11;;;;;;;;;78.00;59.67;;;;;2.63;88.37;100865.22;4979095;28;45970;-68
2022/01/10 00:29:36;;;;;;;;;78.00;57.67;;;;;2.48;89.24;100843.41;4979323;28;45334;-68
2022/01/10 00:32:02;;;;;;;;;72.67;55.33;;;;;2.38;88.95;100833.75;4979491;28;45360;-68
2022/01/10 00:34:28;;;;;;;;;72.33;57.00;;;;;2.44;88.74;100846.84;4979076;28;45552;-68
2022/01/10 00:36:53;;;;;;;;;62.67;51.33;;;;;2.49;89.01;100854.69;4977868;28;46266;-68
2022/01/10 00:39:19;;;;;;;;;68.67;52.33;;;;;2.44;89.30;100850.31;4979159;28;45333;-68
2022/01/10 00:41:45;;;;;;;;;66.33;51.67;;;;;2.47;89.64;100856.38;4979109;28;45375;-68
2022/01/10 00:44:11;;;;;;;;;65.33;49.67;;;;;2.44;90.88;100855.50;4979374;28;45320;-68
2022/01/10 00:46:37;;;;;;;;;63.00;51.00;;;;;2.51;90.04;100864.22;4978643;28;46443;-68
2022/01/10 00:49:02;;;;;;;;;59.67;49.00;;;;;2.50;90.37;100867.69;4978961;28;45229;-68
2022/01/10 00:51:28;;;;;;;;;60.67;45.67;;;;;2.38;90.19;100839.84;4978926;28;45250;-68
2022/01/10 00:53:53;;;;;;;;;64.33;51.33;;;;;2.56;90.60;100866.91;4979211;28;45355;-68
2022/01/10 00:56:20;;;;;;;;;57.67;46.33;;;;;2.58;91.50;100865.19;4978826;28;46311;-68
2022/01/10 00:58:46;;;;;;;;;58.33;45.33;;;;;2.53;91.35;100867.72;4978722;28;45296;-68
2022/01/10 01:01:11;;;;;;;;;56.33;45.00;;;;;2.55;91.23;100859.94;4978864;28;45400;-68
2022/01/10 01:03:37;;;;;;;;;57.00;42.33;;;;;2.55;91.47;100849.56;4978915;28;45316;-68
2022/01/10 01:06:03;;;;;;;;;46.67;40.00;;;;;2.49;90.68;100842.56;4978779;28;46586;-68
2022/01/10 01:08:30;;;;;;;;;59.67;46.33;;;;;2.65;92.17;100874.81;4978864;28;45439;-68
2022/01/10 01:13:52;;;;;;;;;59.33;49.33;;;;;2.55;92.05;100870.34;4978320;28;45332;-68
2022/01/10 01:16:42;;;;;;;;;56.33;45.33;;;;;2.64;91.36;100882.56;4978002;28;46493;-69
2022/01/10 01:24:28;;;;;;;;;62.00;49.00;;;;;2.59;91.23;100892.94;4978650;28;45329;-68
2022/01/10 01:26:54;;;;;;;;;58.33;45.67;;;;;2.65;90.16;100919.00;4978173;28;46578;-68
2022/01/10 01:29:25;;;;;;;;;56.00;43.00;;;;;2.64;90.53;100922.44;4978515;28;45289;-68
2022/01/10 01:31:52;;;;;;;;;54.00;43.33;;;;;2.59;90.59;100917.19;4978531;28;45363;-68
2022/01/10 01:34:20;;;;;;;;;50.33;41.00;;;;;2.56;90.27;100924.09;4978213;28;45395;-68
2022/01/10 01:36:50;;;;;;;;;47.00;40.33;;;;;2.50;90.80;100919.69;4978206;28;45394;-68
2022/01/10 01:39:25;;;;;;;;;60.00;45.00;;;;;2.48;90.27;100930.91;4978266;28;45142;-68
2022/01/10 01:41:56;;;;;;;;;55.00;46.33;;;;;2.51;89.24;100938.72;4978141;28;45328;-68
2022/01/10 01:44:22;;;;;;;;;57.33;45.67;;;;;2.38;89.41;100935.09;4978307;28;45399;-68
2022/01/10 01:46:48;;;;;;;;;54.67;43.67;;;;;2.35;91.00;100941.13;4977987;28;45402;-68
2022/01/10 01:49:14;;;;;;;;;57.00;43.33;;;;;2.40;90.53;100955.06;4977914;28;45269;-68
2022/01/10 01:51:40;;;;;;;;;52.33;44.00;;;;;2.31;91.60;100934.16;4978373;28;45355;-68
2022/01/10 01:54:09;;;;;;;;;47.33;38.33;;;;;2.43;89.86;100960.28;4978261;28;45309;-68
2022/01/10 01:56:35;;;;;;;;;58.33;45.33;;;;;2.44;91.83;100955.97;4977802;28;45685;-68
2022/01/10 01:59:01;;;;;;;;;50.67;39.67;;;;;2.45;91.31;100965.50;4978071;28;45342;-68
2022/01/10 02:01:27;;;;;;;;;46.33;38.33;;;;;2.37;90.32;100959.34;4978013;28;45210;-68
2022/01/10 02:03:52;;;;;;;;;53.33;42.00;;;;;2.40;90.22;100973.25;4978163;28;45415;-70
2022/01/10 02:06:18;;;;;;;;;52.00;42.00;;;;;2.43;91.34;100986.28;4977854;28;45248;-68
2022/01/10 02:08:43;;;;;;;;;47.67;38.33;;;;;2.37;91.03;100978.41;4977857;28;45193;-70
2022/01/10 02:11:12;;;;;;;;;60.00;44.67;;;;;2.47;90.94;101007.09;4978285;28;45178;-70
2022/01/10 02:13:38;;;;;;;;;50.00;38.67;;;;;2.42;90.13;101001.84;4978071;28;45348;-70
2022/01/10 02:16:06;;;;;;;;;50.33;41.33;;;;;2.14;90.48;100966.81;4977613;28;45413;-70
2022/01/10 02:18:33;;;;;;;;;56.33;40.67;;;;;2.33;91.53;101007.78;4977587;28;45430;-70
2022/01/10 02:21:01;;;;;;;;;46.33;38.33;;;;;2.26;90.27;100980.81;4977723;28;45234;-70
2022/01/10 02:23:28;;;;;;;;;40.33;37.33;;;;;2.32;90.46;100998.22;4977970;28;45413;-70
2022/01/10 02:25:54;;;;;;;;;30.67;25.67;;;;;2.30;89.93;100999.09;4979354;28;45326;-70
2022/01/10 02:28:20;;;;;;;;;46.67;42.33;;;;;1.84;90.91;100947.28;4981038;28;45347;-70
2022/01/10 02:30:45;;;;;;;;;54.33;41.00;;;;;2.23;91.66;101009.34;4981317;28;45440;-70
2022/01/10 02:33:11;;;;;;;;;50.00;41.33;;;;;2.24;91.38;101020.66;4980887;28;45414;-70
2022/01/10 02:35:51;;;;;;;;;45.67;38.67;;;;;2.28;92.07;101037.13;4981099;28;46534;-70
2022/01/10 02:38:17;;;;;;;;;49.00;40.67;;;;;2.09;92.23;101001.38;4981152;28;45442;-70
2022/01/10 02:40:44;;;;;;;;;37.33;37.00;;;;;2.28;92.27;101035.44;4980994;28;45444;-70
2022/01/10 02:43:10;;;;;;;;;55.00;40.67;;;;;2.33;91.82;101040.69;4981173;28;45335;-70
2022/01/10 02:45:35;;;;;;;;;54.33;42.33;;;;;2.32;92.53;101044.13;4980691;28;45365;-70
2022/01/10 02:48:00;;;;;;;;;46.33;37.33;;;;;2.21;92.34;101038.78;4980249;28;45332;-70
2022/01/10 02:50:26;;;;;;;;;45.00;39.33;;;;;2.11;92.52;101029.06;4981108;28;45246;-70
2022/01/10 02:52:51;;;;;;;;;48.00;40.67;;;;;2.35;93.35;101063.25;4981052;28;45475;-70
2022/01/10 02:55:17;;;;;;;;;44.00;40.33;;;;;2.33;91.89;101071.88;4980594;28;46347;-70
2022/01/10 02:57:43;;;;;;;;;44.00;39.67;;;;;2.17;92.30;101057.75;4980886;28;45510;-70
2022/01/10 03:00:16;;;;;;;;;43.33;39.00;;;;;2.24;92.28;101083.00;4980729;28;45317;-70
2022/01/10 03:02:43;;;;;;;;;52.33;41.33;;;;;2.12;92.07;101090.56;4980807;28;45459;-70
2022/01/10 03:05:09;;;;;;;;;46.67;41.00;;;;;2.08;92.82;101087.06;4980413;28;46436;-69
2022/01/10 03:07:35;;;;;;;;;46.33;39.00;;;;;2.12;92.49;101085.38;4980473;28;45261;-70
2022/01/10 03:10:00;;;;;;;;;50.33;39.33;;;;;2.09;91.79;101083.56;4980624;28;45276;-70
2022/01/10 03:12:28;;;;;;;;;47.67;39.00;;;;;2.17;90.82;101094.13;4980923;28;45442;-70
2022/01/10 03:14:53;;;;;;;;;45.67;42.33;;;;;2.14;91.73;101099.28;4980192;28;46235;-70
2022/01/10 03:17:19;;;;;;;;;56.00;40.67;;;;;2.07;91.78;101091.34;4980452;28;45305;-70
2022/01/10 03:19:44;;;;;;;;;47.00;40.00;;;;;1.98;92.24;101091.19;4980586;28;45307;-70
2022/01/10 03:22:10;;;;;;;;;47.67;39.00;;;;;1.91;92.38;101092.78;4980668;28;45348;-70
2022/01/10 03:24:36;;;;;;;;;57.33;39.00;;;;;1.86;92.07;101086.66;4980336;28;46011;-70
2022/01/10 03:27:02;;;;;;;;;37.67;34.33;;;;;1.90;93.18;101097.97;4980365;28;45538;-70
2022/01/10 03:29:27;;;;;;;;;44.00;41.33;;;;;1.92;92.28;101098.88;4980277;28;45297;-70
2022/01/10 03:31:53;;;;;;;;;48.00;40.00;;;;;1.97;92.45;101104.16;4980490;28;45362;-70
2022/01/10 03:34:18;;;;;;;;;51.00;40.00;;;;;1.92;91.89;101106.69;4979754;28;46580;-70
2022/01/10 03:36:44;;;;;;;;;57.00;47.00;;;;;1.96;92.85;101107.59;4980022;28;45201;-70
2022/01/10 03:39:13;;;;;;;;;44.00;38.00;;;;;1.96;91.20;101110.19;4980193;28;45384;-70
2022/01/10 03:41:40;;;;;;;;;51.67;40.00;;;;;1.95;90.60;101117.13;4980508;28;45355;-70
2022/01/10 03:44:06;;;;;;;;;50.00;39.67;;;;;1.89;91.26;101123.06;4979936;28;45438;-70
2022/01/10 03:46:33;;;;;;;;;51.67;41.67;;;;;1.71;93.50;101091.56;4979828;28;45948;-70
2022/01/10 03:49:02;;;;;;;;;45.33;36.00;;;;;1.88;93.60;101113.50;4979411;28;45296;-70
2022/01/10 03:51:28;;;;;;;;;48.33;37.00;;;;;2.00;92.59;101146.63;4980166;28;45417;-70
2022/01/10 03:53:54;;;;;;;;;50.67;40.00;;;;;2.00;92.63;101146.63;4979713;28;46388;-70
2022/01/10 03:56:22;;;;;;;;;39.33;32.67;;;;;1.92;92.27;101137.84;4979674;28;45323;-70
2022/01/10 03:58:47;;;;;;;;;58.00;40.00;;;;;2.01;92.78;101153.56;4979894;28;45316;-70
2022/01/10 04:01:14;;;;;;;;;43.67;38.67;;;;;2.03;93.29;101148.41;4980018;28;45361;-70
2022/01/10 04:03:40;;;;;;;;;51.33;39.33;;;;;2.06;93.68;101156.25;4979494;28;46776;-69
2022/01/10 04:06:06;;;;;;;;;39.67;35.00;;;;;2.05;92.14;101159.72;4979783;28;45173;-70
2022/01/10 04:08:32;;;;;;;;;43.00;36.33;;;;;2.00;91.31;101159.59;4979664;28;45450;-70
2022/01/10 04:10:58;;;;;;;;;43.33;37.33;;;;;1.98;92.00;101155.25;4979663;28;45494;-70
2022/01/10 04:13:24;;;;;;;;;42.67;39.67;;;;;1.94;92.25;101159.50;4979570;28;46584;-70
2022/01/10 04:15:50;;;;;;;;;51.67;39.00;;;;;1.96;92.43;101167.31;4979397;28;45863;-69
2022/01/10 04:18:15;;;;;;;;;42.00;38.00;;;;;1.87;93.39;101153.34;4979658;28;45373;-69
2022/01/10 04:20:42;;;;;;;;;38.67;36.00;;;;;1.95;91.35;101162.97;4979755;28;45264;-69
2022/01/10 04:23:08;;;;;;;;;36.33;32.67;;;;;1.86;91.06;101163.66;4979457;28;45571;-69
2022/01/10 04:25:33;;;;;;;;;48.00;42.33;;;;;1.91;92.65;101185.41;4979368;28;45323;-69
2022/01/10 04:27:58;;;;;;;;;41.33;39.33;;;;;1.94;92.54;101176.81;4978706;28;45253;-69
2022/01/10 04:30:24;;;;;;;;;48.33;40.33;;;;;1.56;93.49;101113.75;4979759;28;45277;-69
2022/01/10 04:32:49;;;;;;;;;64.00;49.33;;;;;1.94;92.93;101185.47;4978880;28;46369;-69
2022/01/10 04:35:15;;;;;;;;;63.33;47.33;;;;;1.96;93.59;101189.00;4979199;28;45165;-69
2022/01/10 04:37:40;;;;;;;;;51.00;43.33;;;;;1.97;94.00;101187.25;4979503;28;45230;-69
2022/01/10 04:40:08;;;;;;;;;57.00;46.67;;;;;2.01;93.43;101199.47;4979461;28;45217;-69
2022/01/10 04:42:34;;;;;;;;;48.33;42.00;;;;;1.93;93.47;101188.91;4979050;28;45431;-69
2022/01/10 04:44:59;;;;;;;;;48.00;39.33;;;;;1.97;92.51;101206.28;4978847;28;45479;-69
2022/01/10 04:47:24;;;;;;;;;40.67;38.00;;;;;1.91;92.23;101224.34;4978760;28;45633;-69
2022/01/10 04:50:44;;;;;;;;;45.33;38.33;;;;;1.89;92.55;101231.25;4979049;28;45478;-69
2022/01/10 04:52:44;;;;;;;;;42.00;35.33;;;;;1.85;93.39;101234.63;4977701;28;45533;-69
2022/01/10 04:55:11;;;;;;;;;42.00;33.00;;;;;1.86;94.22;101231.16;4978788;28;45397;-69
2022/01/10 04:57:36;;;;;;;;;61.00;43.00;;;;;1.92;93.95;101237.38;4978882;28;45497;-70
2022/01/10 05:00:03;;;;;;;;;45.33;42.00;;;;;1.94;93.29;101244.31;4979189;28;45230;-69
2022/01/10 05:02:29;;;;;;;;;49.00;37.33;;;;;1.95;92.53;101249.56;4978776;28;47528;-69
2022/01/10 05:04:54;;;;;;;;;55.33;38.33;;;;;1.87;91.11;101253.69;4978682;28;45361;-69
2022/01/10 05:07:20;;;;;;;;;49.33;41.67;;;;;1.81;90.81;101266.56;4978924;28;45300;-69
2022/01/10 05:09:45;;;;;;;;;50.00;39.33;;;;;1.62;92.18;101258.34;4978807;28;45547;-69
2022/01/10 05:12:12;;;;;;;;;49.00;41.33;;;;;1.60;92.20;101256.56;4978722;28;47346;-69
2022/01/10 05:14:37;;;;;;;;;46.67;34.00;;;;;1.62;91.57;101273.94;4978481;28;45382;-69
2022/01/10 05:17:03;;;;;;;;;31.00;25.33;;;;;1.55;91.33;101283.31;4978794;28;45244;-69
2022/01/10 05:19:28;;;;;;;;;47.67;39.33;;;;;1.52;92.19;101271.97;4978644;28;45809;-69
2022/01/10 05:21:54;;;;;;;;;48.00;40.33;;;;;1.55;92.80;101275.53;4978246;28;46371;-69
2022/01/10 05:24:19;;;;;;;;;47.67;39.00;;;;;1.59;92.14;101283.38;4978590;28;45376;-69
2022/01/10 05:26:44;;;;;;;;;50.33;38.67;;;;;1.46;92.00;101282.22;4978516;28;45404;-69
2022/01/10 05:29:10;;;;;;;;;48.33;36.67;;;;;1.47;93.18;101277.06;4978927;28;45367;-69
2022/01/10 05:31:35;;;;;;;;;48.00;41.67;;;;;1.58;93.44;101295.47;4978229;28;45948;-69
2022/01/10 05:34:01;;;;;;;;;45.00;39.67;;;;;1.61;94.21;101308.50;4978063;28;45320;-69
2022/01/10 05:36:27;;;;;;;;;52.33;41.67;;;;;1.60;95.01;101305.88;4978603;28;45365;-68
2022/01/10 05:38:53;;;;;;;;;51.67;40.00;;;;;1.59;94.00;101304.16;4978425;28;45387;-69
2022/01/10 05:41:21;;;;;;;;;43.33;39.00;;;;;1.60;93.32;101316.25;4978232;28;46358;-69
2022/01/10 05:44:09;;;;;;;;;46.00;34.00;;;;;1.60;92.79;101321.44;4976057;28;45384;-69
2022/01/10 05:46:53;;;;;;;;;54.00;43.00;;;;;1.59;92.29;101327.50;4969235;28;45537;-69
2022/01/10 05:49:25;;;;;;;;;54.33;44.33;;;;;1.54;92.69;101333.47;4978394;28;45515;-69
2022/01/10 05:51:53;;;;;;;;;62.00;45.00;;;;;1.52;93.31;101342.03;4976449;28;45298;-69
2022/01/10 05:54:28;;;;;;;;;58.33;43.00;;;;;1.50;91.69;101347.19;4977686;28;45378;-68
2022/01/10 05:57:18;;;;;;;;;48.00;38.67;;;;;1.44;91.82;101354.84;4978051;28;45430;-68
2022/01/10 05:59:57;;;;;;;;;47.67;36.33;;;;;1.37;91.87;101356.38;4946566;28;45688;-69
2022/01/10 06:02:32;;;;;;;;;49.33;40.67;;;;;1.33;92.02;101362.34;4976244;28;45410;-68
2022/01/10 06:04:59;;;;;;;;;47.67;39.33;;;;;1.27;91.48;101359.59;4977035;28;45400;-69
2022/01/10 06:07:35;;;;;;;;;46.33;39.67;;;;;1.24;91.37;101385.47;4978038;28;45394;-69
2022/01/10 06:10:18;;;;;;;;;56.33;40.00;;;;;1.19;92.15;101387.03;4993139;28;45426;-69
2022/01/10 06:12:47;;;;;;;;;49.67;35.00;;;;;1.18;92.22;101388.78;4977569;28;46298;-69
2022/01/10 06:15:19;;;;;;;;;42.00;35.33;;;;;1.10;93.38;101376.44;4976371;28;45410;-68
2022/01/10 06:18:05;;;;;;;;;46.67;39.33;;;;;1.23;91.69;101396.66;4977793;28;45467;-68
2022/01/10 06:20:54;;;;;;;;;42.00;33.00;;;;;1.15;91.60;101400.81;4977315;28;45408;-71
2022/01/10 06:23:35;;;;;;;;;39.00;34.00;;;;;1.12;91.92;101409.38;4956096;28;45413;-68
2022/01/10 06:26:01;;;;;;;;;49.33;43.00;;;;;1.12;92.12;101417.16;4955910;28;45451;-69
2022/01/10 06:28:43;;;;;;;;;38.33;34.33;;;;;0.94;92.71;101391.59;4955799;28;45486;-69
2022/01/10 06:31:14;;;;;;;;;37.00;25.67;;;;;1.12;90.79;101439.59;4909937;28;45445;-69
2022/01/10 06:33:40;;;;;;;;;33.00;28.00;;;;;0.85;90.88;101417.28;4953251;28;45945;-69
2022/01/10 06:36:08;;;;;;;;;29.67;27.67;;;;;0.94;92.15;101440.84;4945123;28;45395;-68
2022/01/10 06:38:35;;;;;;;;;39.67;30.33;;;;;0.91;90.94;101448.53;4943427;28;45459;-68
2022/01/10 06:41:00;;;;;;;;;38.33;29.67;;;;;0.81;91.23;101444.84;4967501;28;45459;-67
2022/01/10 06:43:25;;;;;;;;;40.67;32.33;;;;;0.82;91.50;101437.91;4954862;28;46416;-67
2022/01/10 06:45:51;;;;;;;;;34.00;26.00;;;;;0.81;91.93;101456.91;4955172;28;45585;-68
2022/01/10 06:48:16;;;;;;;;;43.33;30.00;;;;;0.79;92.37;101455.97;4955448;28;45320;-68
2022/01/10 06:50:46;;;;;;;;;34.33;25.00;;;;;0.78;91.89;101467.19;4955586;28;45477;-68
2022/01/10 06:53:15;;;;;;;;;34.33;23.00;;;;;0.77;91.75;101461.13;4955466;28;46657;-69
2022/01/10 06:55:41;;;;;;;;;32.33;27.67;;;;;0.71;92.23;101479.06;4955414;28;45365;-70
2022/01/10 06:58:06;;;;;;;;;23.00;19.67;;;;;0.67;91.95;101470.34;4954868;28;45630;-70
2022/01/10 07:00:31;;;;;;;;;36.00;26.33;;;;;0.76;93.56;101493.06;4967688;28;45276;-69
2022/01/10 07:02:57;;;;;;;;;25.33;21.33;;;;;0.75;93.30;101477.47;4977004;28;46366;-68
2022/01/10 07:05:22;;;;;;;;;30.33;23.00;;;;;0.77;93.56;101505.19;4976758;28;45309;-69
2022/01/10 07:07:48;;;;;;;;;30.00;21.67;;;;;0.79;92.94;101518.19;4976819;28;45279;-70
2022/01/10 07:10:13;;;;;;;;;27.67;20.67;;;;;0.69;92.80;101498.88;4977211;28;45293;-70
2022/01/10 07:12:42;;;;;;;;;29.67;20.33;;;;;0.45;93.17;101452.38;4980187;28;45262;-70
2022/01/10 07:15:08;;;;;;;;;24.33;19.00;;;;;0.83;93.39;101518.31;4980250;28;45417;-70
2022/01/10 07:17:33;;;;;;;;;24.33;20.33;;;;;0.70;93.95;101505.84;4980516;28;45352;-70
2022/01/10 07:20:05;;;;;;;;;28.67;22.00;;;;;0.85;94.94;101536.50;4980437;28;45578;-70
2022/01/10 07:22:30;;;;;;;;;23.00;17.00;;;;;0.73;93.21;101523.16;4980219;28;45465;-70
2022/01/10 07:24:56;;;;;;;;;24.00;17.67;;;;;0.82;93.07;101544.19;4980283;28;45320;-70
2022/01/10 07:27:21;;;;;;;;;31.67;22.33;;;;;0.77;94.14;101535.41;4980440;28;45670;-69
2022/01/10 07:29:49;;;;;;;;;25.33;16.33;;;;;0.78;93.33;101542.34;4980521;28;45233;-69
2022/01/10 07:32:15;;;;;;;;;36.00;24.67;;;;;0.88;93.93;101559.06;4980061;28;46151;-67
2022/01/10 07:34:40;;;;;;;;;31.67;20.67;;;;;0.96;93.99;101565.34;4979542;28;45306;-68
2022/01/10 07:37:06;;;;;;;;;39.67;32.67;;;;;0.95;94.07;101561.00;4980217;28;45328;-67
2022/01/10 07:39:32;;;;;;;;;35.67;21.67;;;;;0.90;94.46;101555.69;4980381;28;45330;-70
2022/01/10 07:41:57;;;;;;;;;16.00;12.67;;;;;0.95;94.78;101577.44;4980031;28;45495;-70
2022/01/10 07:44:22;;;;;;;;;21.00;16.33;;;;;0.92;94.93;101589.44;4980205;28;45429;-70
2022/01/10 07:46:48;;;;;;;;;25.33;16.00;;;;;0.94;95.22;101590.34;4980155;28;45459;-70
2022/01/10 07:49:13;;;;;;;;;23.00;19.33;;;;;1.00;95.42;101609.59;4980138;28;45298;-70
2022/01/10 07:51:39;;;;;;;;;31.33;27.33;;;;;0.82;94.95;101593.47;4979822;28;45495;-70
2022/01/10 07:54:04;;;;;;;;;22.00;19.33;;;;;1.08;94.33;101624.50;4980071;28;45254;-71
2022/01/10 07:56:29;;;;;;;;;27.33;24.00;;;;;1.10;96.36;101638.38;4979723;28;45537;-71
2022/01/10 07:58:56;;;;;;;;;21.33;17.00;;;;;1.03;97.73;101612.28;4980248;28;45197;-71
2022/01/10 08:01:22;;;;;;;;;22.00;16.67;;;;;1.23;96.01;101644.81;4979328;28;46556;-70
2022/01/10 08:03:50;;;;;;;;;25.67;21.00;;;;;1.25;97.38;101656.09;4979427;28;45347;-71
2022/01/10 08:06:17;;;;;;;;;16.33;13.67;;;;;1.35;95.63;101672.03;4979858;28;45386;-70
2022/01/10 08:08:42;;;;;;;;;19.67;13.33;;;;;0.96;96.03;101591.28;4979898;28;45269;-70
2022/01/10 08:11:08;;;;;;;;;17.67;17.00;;;;;1.39;96.85;101665.19;4979251;28;45398;-70
2022/01/10 08:13:33;;;;;;;;;20.00;13.00;;;;;1.46;95.67;101667.13;4979721;28;45314;-70
2022/01/10 08:15:59;;;;;;;;;23.00;17.00;;;;;1.46;97.33;101664.53;4979588;28;45439;-70
2022/01/10 08:18:24;;;;;;;;;23.67;16.67;;;;;1.50;96.03;101668.13;4979711;28;45296;-70
2022/01/10 08:20:50;;;;;;;;;25.67;21.00;;;;;1.51;97.91;101662.06;4979455;28;46647;-70
2022/01/10 08:23:15;;;;;;;;;21.67;18.67;;;;;1.64;97.78;101677.19;4978322;28;45350;-70
2022/01/10 08:25:40;;;;;;;;;22.33;17.00;;;;;1.68;97.34;101673.81;4979674;28;45245;-70
2022/01/10 08:28:06;;;;;;;;;29.67;14.00;;;;;1.74;96.04;101681.81;4979520;28;45390;-69
2022/01/10 08:30:32;;;;;;;;;27.00;17.00;;;;;1.79;96.78;101702.69;4979227;28;45451;-69
2022/01/10 08:32:57;;;;;;;;;19.00;14.00;;;;;1.77;97.04;101681.00;4979340;28;45442;-70
2022/01/10 08:35:22;;;;;;;;;21.67;18.33;;;;;1.97;97.74;101702.34;4979147;28;45511;-70
2022/01/10 08:37:50;;;;;;;;;16.67;13.67;;;;;2.01;97.65;101701.59;4979754;28;45335;-70
2022/01/10 08:40:16;;;;;;;;;14.33;12.00;;;;;2.11;95.84;101707.91;4979170;28;45352;-70
2022/01/10 08:42:41;;;;;;;;;20.00;14.33;;;;;2.07;97.23;101701.75;4979067;28;45451;-69
2022/01/10 08:45:08;;;;;;;;;22.00;12.67;;;;;2.20;96.61;101715.97;4979196;28;45456;-69
2022/01/10 08:47:34;;;;;;;;;19.00;11.67;;;;;2.24;97.82;101722.13;4979224;28;45449;-69
2022/01/10 08:50:00;;;;;;;;;23.00;16.67;;;;;2.00;97.39;101676.44;4978739;28;45522;-69
2022/01/10 08:52:25;;;;;;;;;25.33;19.67;;;;;2.39;97.66;101732.91;4978936;28;45281;-70
2022/01/10 08:54:51;;;;;;;;;18.33;17.00;;;;;2.18;98.01;101690.75;4978941;28;45497;-70
2022/01/10 08:57:17;;;;;;;;;27.00;18.67;;;;;2.47;96.30;101740.03;4979151;28;45375;-70
2022/01/10 08:59:43;;;;;;;;;61.00;46.67;;;;;2.50;98.40;101738.44;4978772;28;46266;-70
2022/01/10 09:02:08;;;;;;;;;24.67;18.00;;;;;2.68;98.25;101748.41;4978619;28;45379;-70
2022/01/10 09:04:34;;;;;;;;;32.67;23.00;;;;;2.70;98.27;101749.34;4978574;28;45418;-70
2022/01/10 09:07:02;;;;;;;;;31.67;25.67;;;;;2.86;96.62;101760.13;4979000;28;45565;-70
2022/01/10 09:09:28;;;;;;;;;26.67;19.33;;;;;2.69;95.58;101734.56;4978502;28;46355;-70
2022/01/10 09:11:57;;;;;;;;;34.33;23.67;;;;;2.88;96.91;101763.66;4978602;28;45359;-70
2022/01/10 09:14:22;;;;;;;;;36.67;25.67;;;;;2.92;97.32;101766.38;4978679;28;45528;-68
2022/01/10 09:16:48;;;;;;;;;27.00;22.00;;;;;2.89;97.67;101750.69;4978680;28;45587;-70
2022/01/10 09:19:13;;;;;;;;;39.00;27.67;;;;;3.04;98.11;101775.34;4978462;28;46041;-70
2022/01/10 09:21:39;;;;;;;;;30.33;15.33;;;;;3.03;97.18;101777.03;4978662;28;45347;-70
2022/01/10 09:24:05;;;;;;;;;31.67;20.33;;;;;3.03;97.01;101778.75;4978584;28;45424;-70
2022/01/10 09:26:30;;;;;;;;;20.00;15.67;;;;;3.11;96.51;101775.50;4978885;28;45289;-70
2022/01/10 09:28:56;;;;;;;;;25.00;17.00;;;;;3.19;96.75;101790.44;4978318;28;45660;-70
2022/01/10 09:31:22;;;;;;;;;24.00;19.00;;;;;3.28;96.80;101796.75;4978405;28;45370;-70
2022/01/10 09:33:53;;;;;;;;;73.33;53.67;;;;;3.32;97.20;101808.09;4976893;28;45453;-70
2022/01/10 09:36:20;;;;;;;;;33.67;24.67;;;;;3.38;97.55;101808.25;4978233;28;45249;-70
2022/01/10 09:38:45;;;;;;;;;24.00;20.33;;;;;3.35;96.61;101791.69;4978030;28;48651;-70
2022/01/10 09:41:10;;;;;;;;;34.33;32.67;;;;;3.47;95.63;101818.91;4978307;28;45450;-70
2022/01/10 09:43:36;;;;;;;;;37.33;21.00;;;;;3.51;95.08;101818.97;4978285;28;45649;-70
2022/01/10 09:46:02;;;;;;;;;43.33;28.33;;;;;3.36;96.90;101796.06;4978202;28;45534;-71
2022/01/10 09:48:27;;;;;;;;;32.00;24.00;;;;;3.52;96.83;101826.81;4977942;28;45653;-70
2022/01/10 09:50:53;;;;;;;;;52.00;38.00;;;;;3.56;95.49;101830.34;4977905;28;45216;-70
2022/01/10 09:53:21;;;;;;;;;29.67;24.00;;;;;3.53;95.63;101827.69;4978216;28;45237;-71
2022/01/10 09:55:48;;;;;;;;;36.33;26.33;;;;;3.53;96.00;101825.97;4978378;28;45416;-70
2022/01/10 09:58:14;;;;;;;;;29.33;23.00;;;;;3.51;97.10;101830.25;4977772;28;47474;-70
2022/01/10 10:00:39;;;;;;;;;33.00;22.33;;;;;3.43;96.85;101808.38;4977912;28;45884;-70
2022/01/10 10:03:06;;;;;;;;;61.00;48.67;;;;;3.59;96.92;101830.44;4978032;28;45354;-70
2022/01/10 10:05:31;;;;;;;;;39.67;30.33;;;;;3.60;96.25;101827.88;4978247;28;45328;-70
2022/01/10 10:07:57;;;;;;;;;45.67;32.67;;;;;3.69;96.95;101840.25;4977579;28;46374;-70
2022/01/10 10:10:22;;;;;;;;;44.33;28.00;;;;;3.71;95.72;101835.94;4977891;28;45376;-68
2022/01/10 10:12:50;;;;;;;;;38.33;26.33;;;;;3.68;95.85;101848.00;4977986;28;45263;-70
2022/01/10 10:15:20;;;;;;;;;41.67;25.00;;;;;3.77;95.98;101853.44;4977953;28;45364;-70
2022/01/10 10:17:46;;;;;;;;;35.00;25.33;;;;;3.80;95.33;101863.91;4977883;28;46225;-69
2022/01/10 10:20:17;;;;;;;;;35.33;26.33;;;;;3.80;96.04;101861.31;4977549;28;45300;-70
2022/01/10 10:22:46;;;;;;;;;45.00;31.67;;;;;3.81;96.28;101873.50;4977602;28;45395;-70
2022/01/10 10:25:12;;;;;;;;;38.00;29.33;;;;;3.83;96.52;101870.09;4978067;28;45313;-70
2022/01/10 10:27:40;;;;;;;;;45.33;33.67;;;;;3.86;96.92;101860.56;4977451;28;46402;-69
2022/01/10 10:30:11;;;;;;;;;60.00;45.33;;;;;3.90;96.07;101876.31;4977623;28;45387;-70
2022/01/10 10:32:36;;;;;;;;;43.67;33.00;;;;;3.78;98.07;101861.28;4977769;28;45385;-70
2022/01/10 10:35:05;;;;;;;;;34.67;28.67;;;;;3.90;96.74;101881.50;4977229;28;45432;-70
2022/01/10 10:37:35;;;;;;;;;56.33;37.67;;;;;3.95;97.06;101889.44;4977375;28;46527;-70
2022/01/10 10:40:03;;;;;;;;;28.67;24.33;;;;;4.02;96.56;101883.50;4977557;28;45494;-70
2022/01/10 10:42:29;;;;;;;;;34.33;31.33;;;;;4.06;96.28;101874.06;4977491;28;45332;-70
2022/01/10 10:44:56;;;;;;;;;38.67;31.67;;;;;4.12;96.25;101885.47;4977931;28;45263;-69
2022/01/10 10:47:27;;;;;;;;;39.67;30.67;;;;;4.10;96.61;101888.91;4979442;28;46264;-69
2022/01/10 10:49:57;;;;;;;;;37.67;29.33;;;;;3.95;95.85;101866.88;4980667;28;45329;-69
2022/01/10 10:52:22;;;;;;;;;43.00;26.00;;;;;4.00;97.07;101887.81;4980958;28;45341;-69
2022/01/10 10:54:48;;;;;;;;;33.00;27.00;;;;;4.20;96.23;101911.75;4981003;28;45423;-69
2022/01/10 10:57:15;;;;;;;;;54.00;40.33;;;;;4.23;96.82;101913.53;4980641;28;46242;-69
2022/01/10 10:59:43;;;;;;;;;38.00;27.33;;;;;4.19;96.11;101900.41;4980791;28;45393;-69
2022/01/10 11:02:10;;;;;;;;;42.00;34.00;;;;;4.24;96.61;101899.63;4980804;28;45472;-69
2022/01/10 11:04:36;;;;;;;;;38.33;31.67;;;;;4.30;96.03;101905.00;4980981;28;45364;-70
2022/01/10 11:07:02;;;;;;;;;25.00;18.00;;;;;4.32;95.67;101900.69;4980414;28;47243;-70
2022/01/10 11:09:28;;;;;;;;;33.33;24.00;;;;;4.39;96.23;101912.16;4980473;28;45209;-69
2022/01/10 11:11:53;;;;;;;;;29.00;20.33;;;;;4.46;95.24;101924.44;4980759;28;45229;-69
2022/01/10 11:14:22;;;;;;;;;25.00;21.00;;;;;4.42;95.86;101918.28;4980724;28;45451;-69
2022/01/10 11:16:50;;;;;;;;;25.67;19.00;;;;;4.51;95.76;101921.09;4980347;28;45685;-69
2022/01/10 11:19:22;;;;;;;;;30.67;19.67;;;;;4.59;95.88;101925.59;4980352;28;45373;-69
2022/01/10 11:22:06;;;;;;;;;17.33;13.67;;;;;4.62;94.79;101923.03;4980343;28;45626;-69
2022/01/10 11:24:50;;;;;;;;;27.67;22.00;;;;;4.63;94.71;101927.41;4980607;28;45328;-69